createdAt,value
2018-04-14T00:00:56.167Z,31.35
2018-04-14T00:02:02.220Z,33.95
2018-04-14T00:03:08.695Z,31.12
2018-04-14T00:04:15.006Z,32.70
2018-04-14T00:05:20.981Z,31.30
2018-04-14T00:06:27.223Z,33.65
2018-04-14T00:07:33.552Z,29.37
2018-04-14T00:08:39.864Z,33.10
2018-04-14T00:09:46.151Z,32.13
2018-04-14T00:10:52.490Z,35.05
2018-04-14T00:11:58.772Z,31.60
2018-04-14T00:13:05.074Z,34.55
2018-04-14T00:14:11.919Z,32.05
2018-04-14T00:15:18.258Z,33.45
2018-04-14T00:16:24.543Z,32.75
2018-04-14T00:17:30.866Z,32.13
2018-04-14T00:18:43.125Z,26.85
2018-04-14T00:19:49.307Z,32.00
2018-04-14T00:20:55.324Z,30.42
2018-04-14T00:22:06.672Z,29.80
2018-04-14T00:23:16.938Z,26.95
2018-04-14T00:24:25.236Z,29.65
2018-04-14T00:25:31.812Z,27.08
2018-04-14T00:26:38.142Z,27.85
2018-04-14T00:27:44.451Z,28.77
2018-04-14T00:28:50.847Z,27.90
2018-04-14T00:29:57.976Z,28.23
2018-04-14T00:31:05.396Z,24.77
2018-04-14T00:32:11.633Z,28.20
2018-04-14T00:33:17.937Z,26.75
2018-04-14T00:34:24.247Z,29.02
2018-04-14T00:35:31.436Z,26.90
2018-04-14T00:36:37.814Z,28.25
2018-04-14T00:37:44.129Z,26.67
2018-04-14T00:38:52.107Z,29.65
2018-04-14T00:39:58.416Z,30.40
2018-04-14T00:41:04.688Z,27.10
2018-04-14T00:42:11.013Z,28.23
2018-04-14T00:43:17.316Z,26.58
2018-04-14T00:44:23.616Z,29.30
2018-04-14T00:45:33.781Z,28.85
2018-04-14T00:46:40.050Z,26.27
2018-04-14T00:47:46.168Z,31.10
2018-04-14T00:48:52.693Z,34.05
2018-04-14T00:49:59.161Z,32.83
2018-04-14T00:51:06.958Z,30.75
2018-04-14T00:52:13.245Z,27.67
2018-04-14T00:53:30.450Z,26.87
2018-04-14T00:54:36.263Z,34.67
2018-04-14T00:55:42.472Z,25.55
2018-04-14T00:56:48.746Z,30.35
2018-04-14T00:57:55.660Z,31.80
2018-04-14T00:59:01.937Z,28.33
2018-04-14T01:00:08.258Z,37.67
2018-04-14T01:01:14.211Z,32.72
2018-04-14T01:02:21.198Z,31.27
2018-04-14T01:03:27.507Z,33.15
2018-04-14T01:04:34.502Z,34.15
2018-04-14T01:05:41.996Z,28.85
2018-04-14T01:06:49.160Z,29.40
2018-04-14T01:07:55.437Z,31.73
2018-04-14T01:09:01.721Z,31.10
2018-04-14T01:10:07.724Z,32.55
2018-04-14T01:11:13.722Z,35.88
2018-04-14T01:12:20.015Z,32.38
2018-04-14T01:13:26.271Z,31.62
2018-04-14T01:14:32.558Z,34.67
2018-04-14T01:15:38.887Z,31.23
2018-04-14T01:16:45.163Z,30.88
2018-04-14T01:17:51.319Z,31.70
2018-04-14T01:18:57.935Z,33.15
2018-04-14T01:20:04.291Z,26.17
2018-04-14T01:21:10.554Z,29.58
2018-04-14T01:22:17.531Z,32.33
2018-04-14T01:23:29.942Z,30.45
2018-04-14T01:24:35.919Z,30.48
2018-04-14T01:25:42.247Z,27.35
2018-04-14T01:26:48.459Z,29.52
2018-04-14T01:27:54.744Z,27.33
2018-04-14T01:29:01.066Z,29.70
2018-04-14T01:30:07.366Z,28.70
2018-04-14T01:31:13.684Z,26.12
2018-04-14T01:32:19.991Z,23.80
2018-04-14T01:33:26.300Z,23.12
2018-04-14T01:34:32.638Z,29.23
2018-04-14T01:35:38.927Z,24.85
2018-04-14T01:36:45.237Z,25.62
2018-04-14T01:37:53.017Z,24.35
2018-04-14T01:38:59.345Z,20.25
2018-04-14T01:40:05.771Z,21.83
2018-04-14T01:41:12.522Z,21.40
2018-04-14T01:42:18.586Z,19.70
2018-04-14T01:43:25.564Z,22.48
2018-04-14T01:44:31.533Z,20.90
2018-04-14T01:45:37.876Z,22.83
2018-04-14T01:46:44.228Z,21.83
2018-04-14T01:47:50.537Z,23.40
2018-04-14T01:48:56.843Z,19.62
2018-04-14T01:50:02.828Z,20.23
2018-04-14T01:51:09.122Z,21.60
2018-04-14T01:52:15.471Z,19.23
2018-04-14T01:53:22.050Z,20.30
2018-04-14T01:54:28.387Z,19.60
2018-04-14T01:55:34.661Z,19.70
2018-04-14T01:56:40.922Z,20.85
2018-04-14T01:57:52.227Z,18.85
2018-04-14T01:58:58.534Z,17.65
2018-04-14T02:00:03.954Z,19.30
2018-04-14T02:01:10.341Z,19.83
2018-04-14T02:02:16.894Z,20.08
2018-04-14T02:03:23.627Z,21.17
2018-04-14T02:04:29.994Z,21.65
2018-04-14T02:05:36.306Z,19.40
2018-04-14T02:06:42.283Z,14.80
2018-04-14T02:07:48.620Z,17.85
2018-04-14T02:08:54.613Z,19.77
2018-04-14T02:10:00.836Z,19.33
2018-04-14T02:11:06.654Z,17.65
2018-04-14T02:12:12.969Z,20.12
2018-04-14T02:13:20.934Z,20.45
2018-04-14T02:14:27.121Z,18.60
2018-04-14T02:15:33.442Z,16.65
2018-04-14T02:16:39.750Z,17.92
2018-04-14T02:17:46.039Z,17.62
2018-04-14T02:18:52.375Z,21.30
2018-04-14T02:19:59.172Z,20.05
2018-04-14T02:21:05.382Z,20.02
2018-04-14T02:22:11.365Z,19.92
2018-04-14T02:23:17.577Z,17.77
2018-04-14T02:24:23.915Z,19.37
2018-04-14T02:25:30.242Z,17.33
2018-04-14T02:26:36.532Z,18.80
2018-04-14T02:27:42.848Z,17.60
2018-04-14T02:28:50.335Z,15.02
2018-04-14T02:29:58.395Z,17.52
2018-04-14T02:31:04.671Z,19.60
2018-04-14T02:32:10.942Z,15.85
2018-04-14T02:33:17.159Z,19.40
2018-04-14T02:34:23.402Z,19.37
2018-04-14T02:35:29.695Z,19.08
2018-04-14T02:36:36.010Z,17.60
2018-04-14T02:37:42.319Z,17.00
2018-04-14T02:38:48.603Z,18.05
2018-04-14T02:39:54.886Z,18.52
2018-04-14T02:41:01.155Z,18.02
2018-04-14T02:42:07.373Z,16.75
2018-04-14T02:43:13.414Z,19.65
2018-04-14T02:44:19.855Z,18.95
2018-04-14T02:45:26.907Z,17.87
2018-04-14T02:46:32.945Z,18.08
2018-04-14T02:47:39.224Z,18.48
2018-04-14T02:48:45.563Z,19.75
2018-04-14T02:49:51.836Z,19.35
2018-04-14T02:50:58.047Z,21.27
2018-04-14T02:52:04.420Z,20.77
2018-04-14T02:53:10.927Z,18.60
2018-04-14T02:54:17.202Z,19.92
2018-04-14T02:55:23.529Z,20.62
2018-04-14T02:56:30.286Z,18.90
2018-04-14T02:57:36.519Z,19.62
2018-04-14T02:58:42.747Z,20.40
2018-04-14T02:59:49.622Z,21.12
2018-04-14T03:00:55.512Z,17.90
2018-04-14T03:02:01.805Z,18.73
2018-04-14T03:03:08.149Z,17.58
2018-04-14T03:04:14.338Z,17.55
2018-04-14T03:05:20.621Z,18.95
2018-04-14T03:06:26.943Z,18.40
2018-04-14T03:07:33.920Z,18.65
2018-04-14T03:08:42.700Z,17.87
2018-04-14T03:09:48.940Z,17.42
2018-04-14T03:10:55.143Z,15.60
2018-04-14T03:12:01.488Z,18.17
2018-04-14T03:13:07.952Z,14.57
2018-04-14T03:14:14.195Z,17.23
2018-04-14T03:15:20.502Z,17.33
2018-04-14T03:16:26.826Z,17.90
2018-04-14T03:17:33.150Z,17.27
2018-04-14T03:18:39.580Z,17.62
2018-04-14T03:19:45.870Z,14.60
2018-04-14T03:20:52.446Z,16.10
2018-04-14T03:21:58.673Z,17.58
2018-04-14T03:23:05.018Z,19.27
2018-04-14T03:24:11.299Z,15.70
2018-04-14T03:25:17.379Z,17.45
2018-04-14T03:26:23.602Z,18.33
2018-04-14T03:27:29.851Z,16.55
2018-04-14T03:28:37.311Z,15.93
2018-04-14T03:29:45.996Z,13.93
2018-04-14T03:30:52.335Z,16.17
2018-04-14T03:31:58.659Z,16.20
2018-04-14T03:33:04.989Z,14.90
2018-04-14T03:34:11.383Z,17.77
2018-04-14T03:35:17.689Z,15.85
2018-04-14T03:36:26.137Z,16.02
2018-04-14T03:37:31.722Z,14.02
2018-04-14T03:38:37.989Z,18.25
2018-04-14T03:39:44.849Z,15.60
2018-04-14T03:40:51.106Z,14.80
2018-04-14T03:41:57.877Z,16.45
2018-04-14T03:43:04.276Z,14.73
2018-04-14T03:44:10.573Z,15.27
2018-04-14T03:45:16.850Z,17.90
2018-04-14T03:46:23.162Z,13.02
2018-04-14T03:47:29.396Z,14.82
2018-04-14T03:48:35.687Z,15.27
2018-04-14T03:49:45.747Z,14.18
2018-04-14T03:50:54.726Z,14.65
2018-04-14T03:52:01.757Z,15.57
2018-04-14T03:53:08.002Z,18.17
2018-04-14T03:54:14.415Z,14.65
2018-04-14T03:55:20.730Z,13.60
2018-04-14T03:56:27.022Z,17.65
2018-04-14T03:57:33.352Z,14.10
2018-04-14T03:58:39.990Z,16.17
2018-04-14T03:59:46.238Z,16.70
2018-04-14T04:00:52.488Z,17.70
2018-04-14T04:01:58.503Z,13.95
2018-04-14T04:03:04.993Z,14.25
2018-04-14T04:04:11.238Z,15.98
2018-04-14T04:05:17.702Z,16.60
2018-04-14T04:06:24.046Z,17.52
2018-04-14T04:07:31.612Z,18.27
2018-04-14T04:08:39.475Z,17.15
2018-04-14T04:09:45.756Z,17.33
2018-04-14T04:10:58.353Z,14.35
2018-04-14T04:12:05.417Z,15.73
2018-04-14T04:13:11.758Z,16.67
2018-04-14T04:14:17.767Z,14.43
2018-04-14T04:15:23.707Z,15.13
2018-04-14T04:16:29.954Z,14.10
2018-04-14T04:17:36.289Z,14.50
2018-04-14T04:18:53.908Z,14.02
2018-04-14T04:20:11.017Z,13.32
2018-04-14T04:23:08.385Z,13.80
2018-04-14T04:24:26.434Z,13.10
2018-04-14T04:25:40.447Z,13.45
2018-04-14T04:26:46.209Z,12.85
2018-04-14T04:27:51.926Z,12.23
2018-04-14T04:28:57.575Z,10.43
2018-04-14T04:30:03.316Z,12.30
2018-04-14T04:31:09.449Z,12.13
2018-04-14T04:32:15.641Z,11.27
2018-04-14T04:33:21.289Z,12.10
2018-04-14T04:34:26.981Z,10.68
2018-04-14T04:35:32.717Z,10.40
2018-04-14T04:36:39.291Z,12.10
2018-04-14T04:37:45.103Z,11.65
2018-04-14T04:38:50.811Z,11.95
2018-04-14T04:39:56.145Z,11.52
2018-04-14T04:41:01.951Z,9.65
2018-04-14T04:42:08.360Z,10.38
2018-04-14T04:43:14.619Z,10.55
2018-04-14T04:44:21.058Z,9.57
2018-04-14T04:45:27.191Z,10.77
2018-04-14T04:46:32.847Z,8.82
2018-04-14T04:47:41.536Z,9.73
2018-04-14T04:48:47.305Z,14.00
2018-04-14T04:49:55.430Z,9.90
2018-04-14T04:51:01.223Z,10.10
2018-04-14T04:52:07.528Z,9.70
2018-04-14T04:53:13.187Z,10.02
2018-04-14T04:54:21.085Z,13.20
2018-04-14T04:55:28.619Z,10.18
2018-04-14T04:56:34.426Z,10.98
2018-04-14T04:57:40.248Z,8.73
2018-04-14T04:58:45.970Z,9.75
2018-04-14T04:59:51.667Z,8.10
2018-04-14T05:00:57.375Z,9.30
2018-04-14T05:02:02.807Z,8.82
2018-04-14T05:03:08.525Z,9.43
2018-04-14T05:04:15.576Z,8.82
2018-04-14T05:05:21.333Z,9.45
2018-04-14T05:06:27.103Z,8.82
2018-04-14T05:07:32.765Z,7.60
2018-04-14T05:08:38.472Z,8.65
2018-04-14T05:09:44.334Z,8.00
2018-04-14T05:10:50.131Z,7.57
2018-04-14T05:11:56.109Z,6.05
2018-04-14T05:13:02.201Z,6.72
2018-04-14T05:14:07.979Z,7.18
2018-04-14T05:15:13.713Z,6.60
2018-04-14T05:16:19.532Z,7.22
2018-04-14T05:17:25.198Z,7.12
2018-04-14T05:18:31.002Z,8.13
2018-04-14T05:19:36.994Z,6.40
2018-04-14T05:20:42.663Z,6.37
2018-04-14T05:21:48.372Z,6.93
2018-04-14T05:22:54.084Z,7.12
2018-04-14T05:23:59.817Z,7.10
2018-04-14T05:25:05.442Z,6.05
2018-04-14T05:26:11.161Z,6.85
2018-04-14T05:27:16.878Z,6.57
2018-04-14T05:28:22.663Z,6.53
2018-04-14T05:29:28.423Z,6.78
2018-04-14T05:30:34.154Z,5.40
2018-04-14T05:31:39.859Z,6.80
2018-04-14T05:32:45.579Z,5.97
2018-04-14T05:33:51.284Z,6.65
2018-04-14T05:34:58.841Z,6.00
2018-04-14T05:36:05.154Z,5.75
2018-04-14T05:37:10.547Z,4.93
2018-04-14T05:38:16.210Z,5.32
2018-04-14T05:39:21.870Z,5.90
2018-04-14T05:40:27.659Z,6.00
2018-04-14T05:41:34.176Z,4.45
2018-04-14T05:42:40.169Z,5.12
2018-04-14T05:43:46.447Z,5.18
2018-04-14T05:44:52.132Z,4.75
2018-04-14T05:45:58.505Z,4.70
2018-04-14T05:47:03.895Z,4.72
2018-04-14T05:48:10.711Z,5.05
2018-04-14T05:49:16.822Z,5.00
2018-04-14T05:50:23.364Z,4.78
2018-04-14T05:51:33.602Z,5.95
2018-04-14T05:52:39.446Z,4.05
2018-04-14T05:53:46.555Z,3.85
2018-04-14T05:54:52.191Z,3.97
2018-04-14T05:56:00.454Z,4.22
2018-04-14T05:57:06.074Z,3.70
2018-04-14T05:58:11.830Z,4.90
2018-04-14T05:59:18.489Z,3.70
2018-04-14T06:00:24.618Z,3.78
2018-04-14T06:01:31.082Z,4.47
2018-04-14T06:02:37.882Z,3.35
2018-04-14T06:03:44.653Z,3.53
2018-04-14T06:04:50.867Z,3.45
2018-04-14T06:05:58.254Z,3.97
2018-04-14T06:07:07.174Z,3.95
2018-04-14T06:08:13.433Z,3.62
2018-04-14T06:09:20.666Z,3.15
2018-04-14T06:10:27.462Z,3.78
2018-04-14T06:11:34.534Z,3.85
2018-04-14T06:12:41.242Z,3.58
2018-04-14T06:13:48.344Z,3.10
2018-04-14T06:14:54.671Z,3.30
2018-04-14T06:16:01.458Z,2.70
2018-04-14T06:17:08.426Z,2.53
2018-04-14T06:18:14.798Z,3.00
2018-04-14T06:19:20.900Z,3.05
2018-04-14T06:20:27.098Z,3.30
2018-04-14T06:21:33.952Z,3.10
2018-04-14T06:22:41.108Z,3.20
2018-04-14T06:23:48.721Z,3.12
2018-04-14T06:24:55.173Z,3.25
2018-04-14T06:26:01.247Z,2.80
2018-04-14T06:27:07.503Z,2.50
2018-04-14T06:28:13.880Z,3.78
2018-04-14T06:29:20.216Z,3.33
2018-04-14T06:30:26.509Z,2.40
2018-04-14T06:31:32.628Z,3.08
2018-04-14T06:32:39.479Z,3.15
2018-04-14T06:33:45.834Z,3.70
2018-04-14T06:34:51.758Z,3.03
2018-04-14T06:35:57.695Z,3.53
2018-04-14T06:37:04.496Z,2.80
2018-04-14T06:38:12.311Z,3.12
2018-04-14T06:39:19.276Z,3.70
2018-04-14T06:40:30.774Z,2.87
2018-04-14T06:41:37.152Z,2.53
2018-04-14T06:42:42.980Z,2.92
2018-04-14T06:43:48.799Z,2.70
2018-04-14T06:44:54.475Z,3.20
2018-04-14T06:46:00.141Z,3.00
2018-04-14T06:47:06.828Z,3.37
2018-04-14T06:48:13.270Z,3.30
2018-04-14T06:49:18.983Z,3.20
2018-04-14T06:50:24.702Z,2.80
2018-04-14T06:51:30.384Z,3.08
2018-04-14T06:52:36.054Z,3.05
2018-04-14T06:53:41.755Z,3.17
2018-04-14T06:54:47.482Z,3.40
2018-04-14T06:55:53.191Z,2.85
2018-04-14T06:56:59.077Z,3.50
2018-04-14T06:58:04.752Z,2.70
2018-04-14T06:59:18.329Z,2.70
2018-04-14T07:00:23.978Z,3.25
2018-04-14T07:01:29.616Z,2.95
2018-04-14T07:02:35.926Z,3.42
2018-04-14T07:03:42.555Z,3.37
2018-04-14T07:04:48.281Z,2.80
2018-04-14T07:05:53.792Z,3.62
2018-04-14T07:06:59.470Z,3.15
2018-04-14T07:08:05.041Z,2.97
2018-04-14T07:09:10.752Z,3.33
2018-04-14T07:10:16.239Z,2.90
2018-04-14T07:11:21.923Z,3.37
2018-04-14T07:12:27.615Z,3.72
2018-04-14T07:13:33.286Z,4.43
2018-04-14T07:14:41.403Z,3.12
2018-04-14T07:15:47.004Z,4.03
2018-04-14T07:16:52.701Z,3.47
2018-04-14T07:17:58.407Z,4.90
2018-04-14T07:19:04.063Z,3.72
2018-04-14T07:20:14.238Z,3.80
2018-04-14T07:21:21.334Z,3.15
2018-04-14T07:22:26.984Z,3.97
2018-04-14T07:23:32.691Z,3.15
2018-04-14T07:24:38.543Z,3.67
2018-04-14T07:25:44.239Z,3.28
2018-04-14T07:26:49.903Z,3.25
2018-04-14T07:27:55.818Z,3.05
2018-04-14T07:29:02.177Z,3.25
2018-04-14T07:30:08.689Z,3.67
2018-04-14T07:31:15.771Z,3.85
2018-04-14T07:32:21.493Z,3.45
2018-04-14T07:33:27.353Z,3.58
2018-04-14T07:34:32.815Z,3.70
2018-04-14T07:35:38.578Z,3.22
2018-04-14T07:36:44.241Z,3.20
2018-04-14T07:37:51.330Z,4.00
2018-04-14T07:38:56.970Z,3.80
2018-04-14T07:40:02.429Z,3.22
2018-04-14T07:41:11.909Z,3.05
2018-04-14T07:42:20.350Z,4.12
2018-04-14T07:43:25.995Z,3.53
2018-04-14T07:44:31.716Z,3.45
2018-04-14T07:45:37.407Z,3.62
2018-04-14T07:46:43.077Z,3.90
2018-04-14T07:47:48.806Z,3.70
2018-04-14T07:48:54.475Z,3.53
2018-04-14T07:50:01.111Z,3.80
2018-04-14T07:51:06.961Z,4.30
2018-04-14T07:52:12.690Z,4.10
2018-04-14T07:53:19.031Z,3.78
2018-04-14T07:54:24.726Z,4.60
2018-04-14T07:55:30.466Z,4.28
2018-04-14T07:56:36.135Z,4.30
2018-04-14T07:57:42.332Z,4.10
2018-04-14T07:58:48.168Z,4.45
2018-04-14T07:59:54.038Z,4.18
2018-04-14T08:11:54.935Z,3.70
2018-04-14T08:13:05.798Z,3.80
2018-04-14T08:14:16.445Z,4.95
2018-04-14T08:15:27.110Z,4.03
2018-04-14T08:25:15.036Z,5.75
2018-04-14T08:26:20.703Z,4.15
2018-04-14T08:27:28.871Z,4.65
2018-04-14T08:28:34.930Z,5.28
2018-04-14T08:29:40.975Z,5.20
2018-04-14T08:37:16.014Z,5.30
2018-04-14T08:38:29.864Z,4.75
2018-04-14T08:39:36.097Z,4.50
2018-04-14T08:40:43.402Z,4.65
2018-04-14T08:41:49.179Z,5.05
2018-04-14T08:42:55.628Z,5.53
2018-04-14T08:44:02.613Z,5.57
2018-04-14T08:45:08.394Z,5.37
2018-04-14T08:46:14.121Z,4.43
2018-04-14T08:48:06.105Z,5.50
2018-04-14T08:49:13.750Z,6.62
2018-04-14T08:50:19.452Z,5.78
2018-04-14T08:51:30.260Z,4.90
2018-04-14T08:52:39.500Z,5.47
2018-04-14T08:53:48.394Z,6.00
2018-04-14T08:54:54.046Z,6.10
2018-04-14T08:56:00.334Z,5.15
2018-04-14T08:57:05.940Z,5.85
2018-04-14T08:58:11.687Z,5.70
2018-04-14T08:59:17.362Z,5.22
2018-04-14T09:00:23.039Z,5.65
2018-04-14T09:01:33.467Z,6.65
2018-04-14T09:02:39.138Z,6.65
2018-04-14T09:03:47.515Z,5.75
2018-04-14T09:05:16.938Z,6.18
2018-04-14T09:06:23.547Z,6.35
2018-04-14T09:07:29.388Z,5.00
2018-04-14T09:08:35.099Z,6.43
2018-04-14T09:09:40.806Z,6.55
2018-04-14T09:10:49.388Z,6.32
2018-04-14T09:11:55.026Z,6.90
2018-04-14T09:13:00.978Z,6.18
2018-04-14T09:14:07.956Z,7.03
2018-04-14T09:15:15.803Z,6.53
2018-04-14T09:16:21.527Z,6.12
2018-04-14T09:17:27.740Z,7.00
2018-04-14T09:18:33.953Z,5.05
2018-04-14T09:19:40.283Z,6.62
2018-04-14T09:20:46.355Z,7.30
2018-04-14T09:21:52.557Z,5.43
2018-04-14T09:22:58.783Z,7.25
2018-04-14T09:24:05.108Z,8.52
2018-04-14T09:25:11.402Z,7.32
2018-04-14T09:26:17.675Z,7.47
2018-04-14T09:27:23.906Z,6.75
2018-04-14T09:28:35.854Z,7.28
2018-04-14T09:29:43.141Z,6.47
2018-04-14T09:30:50.511Z,5.95
2018-04-14T09:31:56.502Z,6.28
2018-04-14T09:33:02.815Z,6.32
2018-04-14T09:34:09.109Z,7.72
2018-04-14T09:35:15.411Z,6.20
2018-04-14T09:36:22.392Z,8.25
2018-04-14T09:37:28.710Z,6.28
2018-04-14T09:38:34.711Z,7.80
2018-04-14T09:39:40.999Z,7.57
2018-04-14T09:40:50.210Z,6.65
2018-04-14T09:41:56.301Z,7.40
2018-04-14T09:43:02.626Z,6.95
2018-04-14T09:44:08.832Z,6.78
2018-04-14T09:45:14.834Z,7.57
2018-04-14T09:46:23.959Z,6.22
2018-04-14T09:47:30.396Z,6.78
2018-04-14T09:48:36.891Z,6.37
2018-04-14T09:49:42.886Z,7.47
2018-04-14T09:50:49.195Z,6.50
2018-04-14T09:51:55.453Z,5.68
2018-04-14T09:53:01.800Z,7.00
2018-04-14T09:54:09.227Z,8.35
2018-04-14T09:55:15.454Z,6.80
2018-04-14T09:56:21.727Z,5.97
2018-04-14T09:57:28.716Z,8.65
2018-04-14T09:58:35.055Z,6.57
2018-04-14T09:59:41.413Z,7.30
2018-04-14T10:00:53.388Z,6.12
2018-04-14T10:02:02.206Z,5.95
2018-04-14T10:03:17.677Z,5.72
2018-04-14T10:04:23.703Z,7.45
2018-04-14T10:05:30.071Z,5.60
2018-04-14T10:06:36.362Z,5.97
2018-04-14T10:07:42.662Z,5.65
2018-04-14T10:08:48.983Z,7.25
2018-04-14T10:09:55.302Z,5.50
2018-04-14T10:11:01.535Z,5.70
2018-04-14T10:12:07.834Z,5.62
2018-04-14T10:13:14.106Z,6.07
2018-04-14T10:14:20.339Z,5.62
2018-04-14T10:15:26.534Z,5.90
2018-04-14T10:16:35.105Z,5.93
2018-04-14T10:17:41.782Z,5.75
2018-04-14T10:18:48.039Z,4.82
2018-04-14T10:19:56.032Z,6.32
2018-04-14T10:21:02.347Z,4.95
2018-04-14T10:22:09.430Z,4.65
2018-04-14T10:23:15.643Z,5.00
2018-04-14T10:24:21.846Z,5.03
2018-04-14T10:25:28.053Z,4.95
2018-04-14T10:26:34.006Z,4.30
2018-04-14T10:27:40.048Z,5.15
2018-04-14T10:28:46.387Z,4.70
2018-04-14T10:29:54.975Z,5.90
2018-04-14T10:31:06.251Z,5.15
2018-04-14T10:32:13.473Z,4.78
2018-04-14T10:33:19.392Z,3.83
2018-04-14T10:34:25.722Z,4.57
2018-04-14T10:35:32.048Z,4.87
2018-04-14T10:36:38.603Z,4.70
2018-04-14T10:37:44.950Z,3.80
2018-04-14T10:38:51.496Z,4.07
2018-04-14T10:39:57.792Z,3.95
2018-04-14T10:41:04.100Z,4.97
2018-04-14T10:42:10.458Z,3.80
2018-04-14T10:43:16.740Z,3.85
2018-04-14T10:44:23.057Z,3.47
2018-04-14T10:45:29.350Z,4.12
2018-04-14T10:46:35.689Z,3.85
2018-04-14T10:47:42.557Z,4.22
2018-04-14T10:48:49.767Z,3.80
2018-04-14T10:49:56.063Z,3.90
2018-04-14T10:51:06.825Z,3.70
2018-04-14T10:52:16.591Z,3.85
2018-04-14T10:53:22.959Z,3.87
2018-04-14T10:54:29.275Z,3.92
2018-04-14T10:55:35.852Z,4.82
2018-04-14T10:56:41.640Z,4.25
2018-04-14T10:57:47.935Z,3.60
2018-04-14T10:58:54.217Z,3.30
2018-04-14T11:00:00.531Z,3.80
2018-04-14T11:01:06.900Z,4.82
2018-04-14T11:02:12.840Z,3.90
2018-04-14T11:03:21.345Z,3.45
2018-04-14T11:04:27.851Z,4.03
2018-04-14T11:05:34.138Z,4.35
2018-04-14T11:06:40.444Z,4.12
2018-04-14T11:07:46.785Z,4.18
2018-04-14T11:08:53.078Z,3.65
2018-04-14T11:09:59.576Z,3.80
2018-04-14T11:11:05.925Z,3.53
2018-04-14T11:12:15.741Z,3.90
2018-04-14T11:13:27.098Z,3.47
2018-04-14T11:14:33.361Z,3.40
2018-04-14T11:15:39.631Z,3.20
2018-04-14T11:16:45.929Z,5.80
2018-04-14T11:17:53.344Z,3.40
2018-04-14T11:18:59.802Z,4.80
2018-04-14T11:20:06.373Z,3.75
2018-04-14T11:21:12.552Z,3.30
2018-04-14T11:22:18.834Z,3.83
2018-04-14T11:23:25.193Z,2.97
2018-04-14T11:24:31.471Z,2.70
2018-04-14T11:25:37.787Z,3.37
2018-04-14T11:26:44.066Z,3.40
2018-04-14T11:27:50.404Z,3.75
2018-04-14T11:28:56.707Z,3.62
2018-04-14T11:30:02.827Z,2.67
2018-04-14T11:31:09.155Z,2.53
2018-04-14T11:32:15.421Z,2.60
2018-04-14T11:33:21.683Z,2.90
2018-04-14T11:34:29.774Z,3.05
2018-04-14T11:35:38.030Z,3.75
2018-04-14T11:36:44.452Z,2.80
2018-04-14T11:37:50.695Z,3.05
2018-04-14T11:38:57.055Z,2.87
2018-04-14T11:40:03.311Z,3.97
2018-04-14T11:41:09.374Z,3.85
2018-04-14T11:42:15.626Z,2.97
2018-04-14T11:43:22.004Z,2.80
2018-04-14T11:44:28.564Z,2.87
2018-04-14T11:45:35.150Z,2.80
2018-04-14T11:46:41.387Z,2.67
2018-04-14T11:47:47.743Z,3.22
2018-04-14T11:48:54.040Z,2.95
2018-04-14T11:50:02.352Z,3.45
2018-04-14T11:51:10.527Z,2.62
2018-04-14T11:52:16.878Z,2.80
2018-04-14T11:53:23.147Z,2.50
2018-04-14T11:54:29.512Z,2.25
2018-04-14T11:55:35.802Z,2.70
2018-04-14T11:56:42.114Z,3.85
2018-04-14T11:57:48.382Z,2.80
2018-04-14T11:58:54.739Z,2.90
2018-04-14T12:00:01.041Z,3.05
2018-04-14T12:01:07.363Z,2.62
2018-04-14T12:02:13.643Z,2.55
2018-04-14T12:03:19.956Z,2.65
2018-04-14T12:04:26.352Z,3.05
2018-04-14T12:05:33.336Z,3.12
2018-04-14T12:06:41.583Z,2.70
2018-04-14T12:07:48.286Z,2.60
2018-04-14T12:08:54.461Z,2.35
2018-04-14T12:10:00.829Z,2.78
2018-04-14T12:11:07.351Z,4.12
2018-04-14T12:12:13.729Z,2.92
2018-04-14T12:13:20.038Z,2.70
2018-04-14T12:14:26.998Z,3.50
2018-04-14T12:15:33.921Z,3.25
2018-04-14T12:16:40.211Z,3.35
2018-04-14T12:17:46.523Z,2.60
2018-04-14T12:18:53.684Z,2.70
2018-04-14T12:20:00.170Z,2.50
2018-04-14T12:21:06.514Z,3.70
2018-04-14T12:22:15.330Z,2.75
2018-04-14T12:23:21.507Z,2.47
2018-04-14T12:24:27.768Z,2.40
2018-04-14T12:25:35.135Z,2.72
2018-04-14T12:26:42.882Z,2.45
2018-04-14T12:27:49.151Z,2.62
2018-04-14T12:28:55.361Z,2.97
2018-04-14T12:30:01.705Z,2.25
2018-04-14T12:31:07.972Z,2.80
2018-04-14T12:32:14.179Z,2.62
2018-04-14T12:33:20.687Z,2.65
2018-04-14T12:34:26.910Z,2.85
2018-04-14T12:35:33.250Z,2.65
2018-04-14T12:36:39.309Z,2.55
2018-04-14T12:37:45.539Z,2.90
2018-04-14T12:38:51.878Z,2.35
2018-04-14T12:39:57.883Z,2.37
2018-04-14T12:41:04.288Z,2.20
2018-04-14T12:42:10.227Z,2.67
2018-04-14T12:43:16.501Z,2.12
2018-04-14T12:44:22.706Z,2.10
2018-04-14T12:45:29.149Z,2.03
2018-04-14T12:46:35.456Z,2.03
2018-04-14T12:47:41.763Z,2.55
2018-04-14T12:48:48.042Z,1.75
2018-04-14T12:49:54.839Z,2.00
2018-04-14T12:51:01.115Z,2.10
2018-04-14T12:52:07.203Z,2.87
2018-04-14T12:53:13.599Z,2.20
2018-04-14T12:54:19.774Z,1.65
2018-04-14T12:55:26.072Z,1.92
2018-04-14T12:56:32.375Z,1.67
2018-04-14T12:57:40.860Z,1.50
2018-04-14T12:58:47.019Z,2.35
2018-04-14T12:59:53.324Z,1.75
2018-04-14T13:00:59.692Z,1.85
2018-04-14T13:02:05.614Z,1.98
2018-04-14T13:03:11.839Z,2.08
2018-04-14T13:04:18.067Z,2.03
2018-04-14T13:05:24.391Z,1.70
2018-04-14T13:06:30.666Z,2.10
2018-04-14T13:07:37.006Z,2.25
2018-04-14T13:08:43.299Z,3.42
2018-04-14T13:09:49.511Z,1.87
2018-04-14T13:10:55.844Z,2.42
2018-04-14T13:12:02.132Z,1.90
2018-04-14T13:13:10.995Z,2.30
2018-04-14T13:14:18.489Z,2.50
2018-04-14T13:15:24.745Z,2.05
2018-04-14T13:16:30.975Z,1.92
2018-04-14T13:17:37.194Z,1.85
2018-04-14T13:18:43.500Z,2.45
2018-04-14T13:19:49.802Z,1.83
2018-04-14T13:20:56.142Z,1.40
2018-04-14T13:22:02.493Z,1.60
2018-04-14T13:23:09.254Z,1.87
2018-04-14T13:24:15.387Z,2.80
2018-04-14T13:25:21.654Z,2.10
2018-04-14T13:26:28.103Z,2.10
2018-04-14T13:27:34.379Z,1.67
2018-04-14T13:28:47.115Z,2.15
2018-04-14T13:29:54.243Z,1.77
2018-04-14T13:31:00.116Z,2.10
2018-04-14T13:32:07.074Z,3.90
2018-04-14T13:33:13.014Z,1.70
2018-04-14T13:34:18.970Z,1.75
2018-04-14T13:35:25.440Z,2.00
2018-04-14T13:36:31.419Z,2.00
2018-04-14T13:37:37.685Z,1.95
2018-04-14T13:38:48.300Z,1.80
2018-04-14T13:39:54.754Z,2.03
2018-04-14T13:41:00.964Z,1.98
2018-04-14T13:42:07.218Z,2.37
2018-04-14T13:43:13.510Z,1.90
2018-04-14T13:44:21.088Z,1.70
2018-04-14T13:45:29.400Z,1.60
2018-04-14T13:46:35.380Z,1.95
2018-04-14T13:47:41.634Z,2.03
2018-04-14T13:48:47.966Z,1.85
2018-04-14T13:49:54.244Z,1.65
2018-04-14T13:51:00.484Z,1.90
2018-04-14T13:52:06.827Z,2.10
2018-04-14T13:53:13.078Z,2.58
2018-04-14T13:54:19.405Z,2.10
2018-04-14T13:55:25.685Z,1.48
2018-04-14T13:56:31.895Z,2.20
2018-04-14T13:57:38.159Z,1.90
2018-04-14T13:58:44.447Z,1.90
2018-04-14T13:59:50.771Z,1.77
2018-04-14T14:00:57.603Z,2.22
2018-04-14T14:02:04.504Z,3.12
2018-04-14T14:03:11.373Z,1.60
2018-04-14T14:04:17.653Z,2.08
2018-04-14T14:05:24.077Z,1.58
2018-04-14T14:06:30.360Z,2.42
2018-04-14T14:07:36.673Z,3.20
2018-04-14T14:08:42.900Z,2.70
2018-04-14T14:09:48.826Z,1.50
2018-04-14T14:10:55.101Z,2.08
2018-04-14T14:12:01.418Z,1.92
2018-04-14T14:13:07.838Z,1.80
2018-04-14T14:14:13.789Z,1.70
2018-04-14T14:15:20.030Z,9.27
2018-04-14T14:16:26.251Z,2.00
2018-04-14T14:17:32.335Z,1.65
2018-04-14T14:18:38.599Z,1.30
2018-04-14T14:19:44.883Z,1.73
2018-04-14T14:20:51.587Z,1.48
2018-04-14T14:21:57.785Z,1.85
2018-04-14T14:23:04.000Z,5.75
2018-04-14T14:24:10.014Z,2.28
2018-04-14T14:25:16.242Z,1.62
2018-04-14T14:26:22.615Z,1.80
2018-04-14T14:27:28.859Z,1.35
2018-04-14T14:28:35.071Z,2.20
2018-04-14T14:29:41.379Z,1.90
2018-04-14T14:30:47.637Z,1.08
2018-04-14T14:31:53.891Z,1.55
2018-04-14T14:33:00.250Z,1.52
2018-04-14T14:34:06.560Z,1.60
2018-04-14T14:35:16.944Z,3.28
2018-04-14T14:36:25.306Z,2.37
2018-04-14T14:37:31.498Z,1.40
2018-04-14T14:38:37.816Z,1.35
2018-04-14T14:39:44.027Z,8.02
2018-04-14T14:40:51.339Z,2.03
2018-04-14T14:41:57.669Z,2.00
2018-04-14T14:43:03.956Z,1.80
2018-04-14T14:44:10.349Z,2.25
2018-04-14T14:45:16.693Z,1.30
2018-04-14T14:46:23.056Z,1.92
2018-04-14T14:47:31.455Z,1.55
2018-04-14T14:48:37.714Z,3.15
2018-04-14T14:49:44.470Z,2.12
2018-04-14T14:50:50.789Z,1.70
2018-04-14T14:51:58.940Z,1.50
2018-04-14T14:53:06.880Z,1.60
2018-04-14T14:54:13.140Z,2.08
2018-04-14T14:55:19.350Z,1.35
2018-04-14T14:56:25.653Z,1.40
2018-04-14T14:57:32.058Z,1.87
2018-04-14T14:58:38.394Z,2.25
2018-04-14T14:59:44.728Z,1.33
2018-04-14T15:00:51.038Z,1.12
2018-04-14T15:01:57.309Z,1.12
2018-04-14T15:03:03.514Z,1.00
2018-04-14T15:04:10.435Z,1.00
2018-04-14T15:05:16.684Z,0.90
2018-04-14T15:06:22.763Z,0.95